sensor_id;sensor_type;location;lat;lon;timestamp;temperature;humidity
8043;DHT22;4064;48.132;11.366;2022-09-09T00:09:22;15.50;99.90
8043;DHT22;4064;48.132;11.366;2022-09-09T00:12:02;15.40;99.90
8043;DHT22;4064;48.132;11.366;2022-09-09T00:14:54;15.40;99.90
8043;DHT22;4064;48.132;11.366;2022-09-09T00:17:43;15.50;99.90
8043;DHT22;4064;48.132;11.366;2022-09-09T00:20:33;15.50;99.90
8043;DHT22;4064;48.132;11.366;2022-09-09T00:25:34;15.50;99.90
8043;DHT22;4064;48.132;11.366;2022-09-09T00:28:02;15.40;99.90
8043;DHT22;4064;48.132;11.366;2022-09-09T00:30:32;15.50;99.90
8043;DHT22;4064;48.132;11.366;2022-09-09T00:33:11;15.50;99.90
8043;DHT22;4064;48.132;11.366;2022-09-09T00:35:45;15.50;99.90
8043;DHT22;4064;48.132;11.366;2022-09-09T00:38:20;15.50;99.90
8043;DHT22;4064;48.132;11.366;2022-09-09T00:41:05;15.40;99.90
8043;DHT22;4064;48.132;11.366;2022-09-09T00:43:37;15.30;99.90
8043;DHT22;4064;48.132;11.366;2022-09-09T00:49:04;15.30;99.90
8043;DHT22;4064;48.132;11.366;2022-09-09T00:54:52;15.20;99.90
8043;DHT22;4064;48.132;11.366;2022-09-09T00:57:28;15.20;99.90
8043;DHT22;4064;48.132;11.366;2022-09-09T01:02:28;15.10;99.90
8043;DHT22;4064;48.132;11.366;2022-09-09T01:05:05;15.10;99.90
8043;DHT22;4064;48.132;11.366;2022-09-09T01:07:32;15.20;99.90
8043;DHT22;4064;48.132;11.366;2022-09-09T01:10:00;15.10;99.90
8043;DHT22;4064;48.132;11.366;2022-09-09T01:12:41;15.10;99.90
8043;DHT22;4064;48.132;11.366;2022-09-09T01:15:11;15.10;99.90
8043;DHT22;4064;48.132;11.366;2022-09-09T01:23:45;15.00;99.90
8043;DHT22;4064;48.132;11.366;2022-09-09T01:26:35;15.00;99.90
8043;DHT22;4064;48.132;11.366;2022-09-09T01:29:04;15.00;99.90
8043;DHT22;4064;48.132;11.366;2022-09-09T01:34:18;15.00;99.90
8043;DHT22;4064;48.132;11.366;2022-09-09T01:37:08;15.00;99.90
8043;DHT22;4064;48.132;11.366;2022-09-09T01:39:36;15.00;99.90
8043;DHT22;4064;48.132;11.366;2022-09-09T01:42:05;15.00;99.90
8043;DHT22;4064;48.132;11.366;2022-09-09T01:44:32;15.00;99.90
8043;DHT22;4064;48.132;11.366;2022-09-09T01:46:58;15.00;99.90
8043;DHT22;4064;48.132;11.366;2022-09-09T01:49:24;15.00;99.90
8043;DHT22;4064;48.132;11.366;2022-09-09T01:51:53;15.00;99.90
8043;DHT22;4064;48.132;11.366;2022-09-09T01:54:21;14.90;99.90
8043;DHT22;4064;48.132;11.366;2022-09-09T02:02:11;14.80;99.90
8043;DHT22;4064;48.132;11.366;2022-09-09T02:07:49;14.60;99.90
8043;DHT22;4064;48.132;11.366;2022-09-09T02:10:46;14.60;99.90
8043;DHT22;4064;48.132;11.366;2022-09-09T02:13:15;14.60;99.90
8043;DHT22;4064;48.132;11.366;2022-09-09T02:18:38;14.50;99.90
8043;DHT22;4064;48.132;11.366;2022-09-09T02:21:05;14.50;99.90
8043;DHT22;4064;48.132;11.366;2022-09-09T02:23:34;14.40;99.90
8043;DHT22;4064;48.132;11.366;2022-09-09T02:26:00;14.40;99.90
8043;DHT22;4064;48.132;11.366;2022-09-09T02:28:31;14.40;99.90
8043;DHT22;4064;48.132;11.366;2022-09-09T02:30:57;14.30;99.90
8043;DHT22;4064;48.132;11.366;2022-09-09T02:33:30;14.30;99.90
8043;DHT22;4064;48.132;11.366;2022-09-09T02:35:59;14.30;99.90
8043;DHT22;4064;48.132;11.366;2022-09-09T02:38:31;14.20;99.90
8043;DHT22;4064;48.132;11.366;2022-09-09T02:40:58;14.30;99.90
8043;DHT22;4064;48.132;11.366;2022-09-09T02:43:24;14.20;99.90
8043;DHT22;4064;48.132;11.366;2022-09-09T02:46:13;14.20;99.90
8043;DHT22;4064;48.132;11.366;2022-09-09T02:54:32;14.30;99.90
8043;DHT22;4064;48.132;11.366;2022-09-09T02:57:20;14.30;99.90
8043;DHT22;4064;48.132;11.366;2022-09-09T02:59:47;14.30;99.90
8043;DHT22;4064;48.132;11.366;2022-09-09T03:02:13;14.40;99.90
8043;DHT22;4064;48.132;11.366;2022-09-09T03:04:40;14.30;99.90
8043;DHT22;4064;48.132;11.366;2022-09-09T03:07:07;14.40;99.90
8043;DHT22;4064;48.132;11.366;2022-09-09T03:09:33;14.40;99.90
8043;DHT22;4064;48.132;11.366;2022-09-09T03:11:59;14.30;99.90
8043;DHT22;4064;48.132;11.366;2022-09-09T03:14:24;14.40;99.90
8043;DHT22;4064;48.132;11.366;2022-09-09T03:16:51;14.30;99.90
8043;DHT22;4064;48.132;11.366;2022-09-09T03:19:17;14.40;99.90
8043;DHT22;4064;48.132;11.366;2022-09-09T03:21:44;14.30;99.90
8043;DHT22;4064;48.132;11.366;2022-09-09T03:24:11;14.30;99.90
8043;DHT22;4064;48.132;11.366;2022-09-09T03:26:36;14.30;99.90
8043;DHT22;4064;48.132;11.366;2022-09-09T03:29:04;14.30;99.90
8043;DHT22;4064;48.132;11.366;2022-09-09T03:31:32;14.20;99.90
8043;DHT22;4064;48.132;11.366;2022-09-09T03:33:58;14.30;99.90
8043;DHT22;4064;48.132;11.366;2022-09-09T03:36:25;14.20;99.90
8043;DHT22;4064;48.132;11.366;2022-09-09T03:38:52;14.30;99.90
8043;DHT22;4064;48.132;11.366;2022-09-09T03:41:19;14.20;99.90
8043;DHT22;4064;48.132;11.366;2022-09-09T03:43:46;14.20;99.90
8043;DHT22;4064;48.132;11.366;2022-09-09T03:46:12;14.20;99.90
8043;DHT22;4064;48.132;11.366;2022-09-09T03:48:37;14.20;99.90
8043;DHT22;4064;48.132;11.366;2022-09-09T03:51:03;14.20;99.90
8043;DHT22;4064;48.132;11.366;2022-09-09T03:53:30;14.10;99.90
8043;DHT22;4064;48.132;11.366;2022-09-09T03:55:56;14.10;99.90
8043;DHT22;4064;48.132;11.366;2022-09-09T03:58:25;14.10;99.90
8043;DHT22;4064;48.132;11.366;2022-09-09T04:00:56;14.00;99.90
8043;DHT22;4064;48.132;11.366;2022-09-09T04:03:23;14.10;99.90
8043;DHT22;4064;48.132;11.366;2022-09-09T04:05:53;14.00;99.90
8043;DHT22;4064;48.132;11.366;2022-09-09T04:08:20;14.00;99.90
8043;DHT22;4064;48.132;11.366;2022-09-09T04:10:49;14.10;99.90
8043;DHT22;4064;48.132;11.366;2022-09-09T04:13:16;14.10;99.90
8043;DHT22;4064;48.132;11.366;2022-09-09T04:15:44;14.00;99.90
8043;DHT22;4064;48.132;11.366;2022-09-09T04:18:10;14.10;99.90
8043;DHT22;4064;48.132;11.366;2022-09-09T04:20:37;14.00;99.90
8043;DHT22;4064;48.132;11.366;2022-09-09T04:23:04;14.00;99.90
8043;DHT22;4064;48.132;11.366;2022-09-09T04:25:30;14.00;99.90
8043;DHT22;4064;48.132;11.366;2022-09-09T04:27:57;14.00;99.90
8043;DHT22;4064;48.132;11.366;2022-09-09T04:30:24;14.00;99.90
8043;DHT22;4064;48.132;11.366;2022-09-09T04:32:50;14.00;99.90
8043;DHT22;4064;48.132;11.366;2022-09-09T04:35:16;14.10;99.90
8043;DHT22;4064;48.132;11.366;2022-09-09T04:37:42;14.10;99.90
8043;DHT22;4064;48.132;11.366;2022-09-09T04:40:08;14.10;99.90
8043;DHT22;4064;48.132;11.366;2022-09-09T04:42:38;14.10;99.90
8043;DHT22;4064;48.132;11.366;2022-09-09T04:45:05;14.10;99.90
8043;DHT22;4064;48.132;11.366;2022-09-09T04:47:32;14.10;99.90
8043;DHT22;4064;48.132;11.366;2022-09-09T04:49:58;14.10;99.90
8043;DHT22;4064;48.132;11.366;2022-09-09T04:52:23;14.10;99.90
8043;DHT22;4064;48.132;11.366;2022-09-09T04:54:49;14.10;99.90
8043;DHT22;4064;48.132;11.366;2022-09-09T04:57:15;14.10;99.90
8043;DHT22;4064;48.132;11.366;2022-09-09T04:59:40;14.20;99.90
8043;DHT22;4064;48.132;11.366;2022-09-09T05:02:06;14.20;99.90
8043;DHT22;4064;48.132;11.366;2022-09-09T05:04:32;14.30;99.90
8043;DHT22;4064;48.132;11.366;2022-09-09T05:06:59;14.30;99.90
8043;DHT22;4064;48.132;11.366;2022-09-09T05:09:25;14.30;99.90
8043;DHT22;4064;48.132;11.366;2022-09-09T05:11:50;14.30;99.90
8043;DHT22;4064;48.132;11.366;2022-09-09T05:14:16;14.30;99.90
8043;DHT22;4064;48.132;11.366;2022-09-09T05:16:44;14.30;99.90
8043;DHT22;4064;48.132;11.366;2022-09-09T05:19:10;14.20;99.90
8043;DHT22;4064;48.132;11.366;2022-09-09T05:21:37;14.20;99.90
8043;DHT22;4064;48.132;11.366;2022-09-09T05:24:02;14.20;99.90
8043;DHT22;4064;48.132;11.366;2022-09-09T05:26:28;14.20;99.90
8043;DHT22;4064;48.132;11.366;2022-09-09T05:28:57;14.30;99.90
8043;DHT22;4064;48.132;11.366;2022-09-09T05:31:24;14.40;99.90
8043;DHT22;4064;48.132;11.366;2022-09-09T05:33:53;14.30;99.90
8043;DHT22;4064;48.132;11.366;2022-09-09T05:36:21;14.40;99.90
8043;DHT22;4064;48.132;11.366;2022-09-09T05:38:47;14.40;99.90
8043;DHT22;4064;48.132;11.366;2022-09-09T05:41:15;14.50;99.90
8043;DHT22;4064;48.132;11.366;2022-09-09T05:43:41;14.50;99.90
8043;DHT22;4064;48.132;11.366;2022-09-09T05:46:15;14.50;99.90
8043;DHT22;4064;48.132;11.366;2022-09-09T05:48:43;14.50;99.90
8043;DHT22;4064;48.132;11.366;2022-09-09T05:51:13;14.60;99.90
8043;DHT22;4064;48.132;11.366;2022-09-09T05:53:41;14.60;99.90
8043;DHT22;4064;48.132;11.366;2022-09-09T05:56:09;14.60;99.90
8043;DHT22;4064;48.132;11.366;2022-09-09T05:58:36;14.70;99.90
8043;DHT22;4064;48.132;11.366;2022-09-09T06:01:06;14.70;99.90
8043;DHT22;4064;48.132;11.366;2022-09-09T06:03:33;14.70;99.90
8043;DHT22;4064;48.132;11.366;2022-09-09T06:06:01;14.70;99.90
8043;DHT22;4064;48.132;11.366;2022-09-09T06:08:31;14.70;99.90
8043;DHT22;4064;48.132;11.366;2022-09-09T06:11:11;14.70;99.90
8043;DHT22;4064;48.132;11.366;2022-09-09T06:13:38;14.70;99.90
8043;DHT22;4064;48.132;11.366;2022-09-09T06:16:05;14.70;99.90
8043;DHT22;4064;48.132;11.366;2022-09-09T06:18:32;14.80;99.90
8043;DHT22;4064;48.132;11.366;2022-09-09T06:21:00;14.80;99.90
8043;DHT22;4064;48.132;11.366;2022-09-09T06:23:27;14.80;99.90
8043;DHT22;4064;48.132;11.366;2022-09-09T06:26:11;14.90;99.90
8043;DHT22;4064;48.132;11.366;2022-09-09T06:28:37;14.90;99.90
8043;DHT22;4064;48.132;11.366;2022-09-09T06:31:08;15.00;99.90
8043;DHT22;4064;48.132;11.366;2022-09-09T06:33:38;15.00;99.90
8043;DHT22;4064;48.132;11.366;2022-09-09T06:36:12;15.10;99.90
8043;DHT22;4064;48.132;11.366;2022-09-09T06:38:40;15.10;99.90
8043;DHT22;4064;48.132;11.366;2022-09-09T06:41:07;15.10;99.90
8043;DHT22;4064;48.132;11.366;2022-09-09T06:43:33;15.20;99.90
8043;DHT22;4064;48.132;11.366;2022-09-09T06:46:03;15.20;99.90
8043;DHT22;4064;48.132;11.366;2022-09-09T06:48:29;15.30;99.90
8043;DHT22;4064;48.132;11.366;2022-09-09T06:53:32;15.30;99.90
8043;DHT22;4064;48.132;11.366;2022-09-09T06:56:02;15.40;99.90
8043;DHT22;4064;48.132;11.366;2022-09-09T06:58:28;15.40;99.90
8043;DHT22;4064;48.132;11.366;2022-09-09T07:01:05;15.40;99.90
8043;DHT22;4064;48.132;11.366;2022-09-09T07:03:31;15.50;99.90
8043;DHT22;4064;48.132;11.366;2022-09-09T07:05:57;15.50;99.90
8043;DHT22;4064;48.132;11.366;2022-09-09T07:08:24;15.60;99.90
8043;DHT22;4064;48.132;11.366;2022-09-09T07:10:51;15.70;99.90
8043;DHT22;4064;48.132;11.366;2022-09-09T07:13:23;15.80;99.90
8043;DHT22;4064;48.132;11.366;2022-09-09T07:15:51;15.90;99.90
8043;DHT22;4064;48.132;11.366;2022-09-09T07:18:17;16.00;99.90
8043;DHT22;4064;48.132;11.366;2022-09-09T07:20:42;16.20;99.90
8043;DHT22;4064;48.132;11.366;2022-09-09T07:23:08;16.50;99.90
8043;DHT22;4064;48.132;11.366;2022-09-09T07:25:34;16.70;99.90
8043;DHT22;4064;48.132;11.366;2022-09-09T07:28:00;16.90;99.90
8043;DHT22;4064;48.132;11.366;2022-09-09T07:30:25;17.10;99.90
8043;DHT22;4064;48.132;11.366;2022-09-09T07:32:51;17.20;99.90
8043;DHT22;4064;48.132;11.366;2022-09-09T07:35:17;17.10;99.90
8043;DHT22;4064;48.132;11.366;2022-09-09T07:37:43;17.20;99.90
8043;DHT22;4064;48.132;11.366;2022-09-09T07:40:10;17.20;99.90
8043;DHT22;4064;48.132;11.366;2022-09-09T07:42:36;17.20;99.90
8043;DHT22;4064;48.132;11.366;2022-09-09T07:45:03;17.30;99.90
8043;DHT22;4064;48.132;11.366;2022-09-09T07:47:29;17.30;99.90
8043;DHT22;4064;48.132;11.366;2022-09-09T07:49:55;17.30;99.90
8043;DHT22;4064;48.132;11.366;2022-09-09T07:52:21;17.40;99.90
8043;DHT22;4064;48.132;11.366;2022-09-09T07:54:47;17.50;99.90
8043;DHT22;4064;48.132;11.366;2022-09-09T07:57:13;17.60;99.90
8043;DHT22;4064;48.132;11.366;2022-09-09T07:59:39;17.60;99.90
8043;DHT22;4064;48.132;11.366;2022-09-09T08:02:04;17.60;99.90
8043;DHT22;4064;48.132;11.366;2022-09-09T08:04:30;17.70;99.90
8043;DHT22;4064;48.132;11.366;2022-09-09T08:06:58;17.80;99.90
8043;DHT22;4064;48.132;11.366;2022-09-09T08:09:26;17.70;99.90
8043;DHT22;4064;48.132;11.366;2022-09-09T08:11:54;17.60;99.90
8043;DHT22;4064;48.132;11.366;2022-09-09T08:14:22;17.60;99.90
8043;DHT22;4064;48.132;11.366;2022-09-09T08:16:49;17.40;99.90
8043;DHT22;4064;48.132;11.366;2022-09-09T08:19:16;17.30;99.90
8043;DHT22;4064;48.132;11.366;2022-09-09T08:21:43;17.20;99.90
8043;DHT22;4064;48.132;11.366;2022-09-09T08:24:10;17.10;99.90
8043;DHT22;4064;48.132;11.366;2022-09-09T08:26:38;16.90;99.90
8043;DHT22;4064;48.132;11.366;2022-09-09T08:29:06;16.90;99.90
8043;DHT22;4064;48.132;11.366;2022-09-09T08:31:35;16.80;99.90
8043;DHT22;4064;48.132;11.366;2022-09-09T08:34:01;16.80;99.90
8043;DHT22;4064;48.132;11.366;2022-09-09T08:36:32;16.70;99.90
8043;DHT22;4064;48.132;11.366;2022-09-09T08:39:03;16.80;99.90
8043;DHT22;4064;48.132;11.366;2022-09-09T08:52:41;17.10;99.90
8043;DHT22;4064;48.132;11.366;2022-09-09T08:58:14;17.20;99.90
8043;DHT22;4064;48.132;11.366;2022-09-09T09:12:00;17.50;99.90
8043;DHT22;4064;48.132;11.366;2022-09-09T09:14:33;17.60;99.90
8043;DHT22;4064;48.132;11.366;2022-09-09T09:17:06;17.60;99.90
8043;DHT22;4064;48.132;11.366;2022-09-09T09:19:38;17.70;99.90
8043;DHT22;4064;48.132;11.366;2022-09-09T09:22:30;17.80;99.90
8043;DHT22;4064;48.132;11.366;2022-09-09T09:25:20;17.90;99.90
8043;DHT22;4064;48.132;11.366;2022-09-09T09:31:04;18.00;99.90
8043;DHT22;4064;48.132;11.366;2022-09-09T09:33:52;18.00;99.90
8043;DHT22;4064;48.132;11.366;2022-09-09T09:36:19;17.90;99.90
8043;DHT22;4064;48.132;11.366;2022-09-09T09:39:05;17.80;99.90
8043;DHT22;4064;48.132;11.366;2022-09-09T09:41:36;17.80;99.90
8043;DHT22;4064;48.132;11.366;2022-09-09T09:44:03;17.70;99.90
8043;DHT22;4064;48.132;11.366;2022-09-09T09:46:31;17.70;99.90
8043;DHT22;4064;48.132;11.366;2022-09-09T09:51:24;17.60;99.90
8043;DHT22;4064;48.132;11.366;2022-09-09T09:53:50;17.60;99.90
8043;DHT22;4064;48.132;11.366;2022-09-09T09:56:26;17.50;99.90
8043;DHT22;4064;48.132;11.366;2022-09-09T09:58:54;17.50;99.90
8043;DHT22;4064;48.132;11.366;2022-09-09T10:01:31;17.40;99.90
8043;DHT22;4064;48.132;11.366;2022-09-09T10:06:36;17.30;99.90
8043;DHT22;4064;48.132;11.366;2022-09-09T10:12:02;17.30;99.90
8043;DHT22;4064;48.132;11.366;2022-09-09T10:14:40;17.30;99.90
8043;DHT22;4064;48.132;11.366;2022-09-09T10:20:15;17.50;99.90
8043;DHT22;4064;48.132;11.366;2022-09-09T10:23:20;17.60;99.90
8043;DHT22;4064;48.132;11.366;2022-09-09T10:26:27;17.70;99.90
8043;DHT22;4064;48.132;11.366;2022-09-09T10:51:45;18.10;99.90
8043;DHT22;4064;48.132;11.366;2022-09-09T10:54:36;18.20;99.90
8043;DHT22;4064;48.132;11.366;2022-09-09T10:57:11;18.30;99.90
8043;DHT22;4064;48.132;11.366;2022-09-09T10:59:47;18.30;99.90
8043;DHT22;4064;48.132;11.366;2022-09-09T11:02:27;18.30;99.90
8043;DHT22;4064;48.132;11.366;2022-09-09T11:05:19;18.40;99.90
8043;DHT22;4064;48.132;11.366;2022-09-09T11:07:55;18.60;99.90
8043;DHT22;4064;48.132;11.366;2022-09-09T11:16:16;19.20;99.90
8043;DHT22;4064;48.132;11.366;2022-09-09T11:18:46;19.40;99.90
8043;DHT22;4064;48.132;11.366;2022-09-09T11:21:31;19.60;99.90
8043;DHT22;4064;48.132;11.366;2022-09-09T11:24:10;19.70;99.90
8043;DHT22;4064;48.132;11.366;2022-09-09T11:26:45;19.80;99.90
8043;DHT22;4064;48.132;11.366;2022-09-09T11:42:24;21.00;99.90
8043;DHT22;4064;48.132;11.366;2022-09-09T11:44:51;21.00;99.90
8043;DHT22;4064;48.132;11.366;2022-09-09T11:49:47;20.60;99.90
8043;DHT22;4064;48.132;11.366;2022-09-09T11:52:41;20.40;99.90
8043;DHT22;4064;48.132;11.366;2022-09-09T11:55:10;20.10;99.90
8043;DHT22;4064;48.132;11.366;2022-09-09T11:57:38;19.90;99.90
8043;DHT22;4064;48.132;11.366;2022-09-09T12:00:04;19.80;99.90
8043;DHT22;4064;48.132;11.366;2022-09-09T12:02:30;19.80;99.90
8043;DHT22;4064;48.132;11.366;2022-09-09T12:05:08;19.80;99.90
8043;DHT22;4064;48.132;11.366;2022-09-09T12:07:41;19.90;99.90
8043;DHT22;4064;48.132;11.366;2022-09-09T12:10:31;20.00;99.90
8043;DHT22;4064;48.132;11.366;2022-09-09T12:13:23;20.00;99.90
8043;DHT22;4064;48.132;11.366;2022-09-09T12:15:53;20.20;99.70
8043;DHT22;4064;48.132;11.366;2022-09-09T12:18:25;20.20;99.90
8043;DHT22;4064;48.132;11.366;2022-09-09T12:23:52;20.30;99.20
8043;DHT22;4064;48.132;11.366;2022-09-09T12:29:31;20.30;97.90
8043;DHT22;4064;48.132;11.366;2022-09-09T12:32:11;20.30;97.50
8043;DHT22;4064;48.132;11.366;2022-09-09T12:35:00;20.20;97.50
8043;DHT22;4064;48.132;11.366;2022-09-09T12:40:30;20.30;98.40
8043;DHT22;4064;48.132;11.366;2022-09-09T12:42:58;20.30;98.00
8043;DHT22;4064;48.132;11.366;2022-09-09T12:45:29;20.40;98.00
8043;DHT22;4064;48.132;11.366;2022-09-09T12:48:03;20.50;97.80
8043;DHT22;4064;48.132;11.366;2022-09-09T12:50:50;20.50;97.80
8043;DHT22;4064;48.132;11.366;2022-09-09T12:53:33;20.40;97.50
8043;DHT22;4064;48.132;11.366;2022-09-09T12:56:02;20.40;97.70
8043;DHT22;4064;48.132;11.366;2022-09-09T12:58:29;20.40;97.50
8043;DHT22;4064;48.132;11.366;2022-09-09T13:01:00;20.30;97.10
8043;DHT22;4064;48.132;11.366;2022-09-09T13:03:27;20.20;97.00
8043;DHT22;4064;48.132;11.366;2022-09-09T13:05:54;20.20;97.00
8043;DHT22;4064;48.132;11.366;2022-09-09T13:08:25;20.20;97.10
8043;DHT22;4064;48.132;11.366;2022-09-09T13:10:54;20.20;97.10
8043;DHT22;4064;48.132;11.366;2022-09-09T13:13:27;20.30;97.10
8043;DHT22;4064;48.132;11.366;2022-09-09T13:16:00;20.30;97.30
8043;DHT22;4064;48.132;11.366;2022-09-09T13:18:33;20.70;97.70
8043;DHT22;4064;48.132;11.366;2022-09-09T13:20:59;21.00;97.10
8043;DHT22;4064;48.132;11.366;2022-09-09T13:23:33;21.00;96.10
8043;DHT22;4064;48.132;11.366;2022-09-09T13:26:22;21.00;95.90
8043;DHT22;4064;48.132;11.366;2022-09-09T13:28:48;20.90;95.70
8043;DHT22;4064;48.132;11.366;2022-09-09T13:31:28;20.90;95.80
8043;DHT22;4064;48.132;11.366;2022-09-09T13:33:54;21.00;95.40
8043;DHT22;4064;48.132;11.366;2022-09-09T13:36:31;21.00;94.90
8043;DHT22;4064;48.132;11.366;2022-09-09T13:38:59;21.20;94.90
8043;DHT22;4064;48.132;11.366;2022-09-09T13:44:01;21.20;96.40
8043;DHT22;4064;48.132;11.366;2022-09-09T13:49:19;20.70;97.70
8043;DHT22;4064;48.132;11.366;2022-09-09T13:52:04;20.40;97.80
8043;DHT22;4064;48.132;11.366;2022-09-09T13:54:30;19.90;98.40
8043;DHT22;4064;48.132;11.366;2022-09-09T13:56:56;19.70;99.00
8043;DHT22;4064;48.132;11.366;2022-09-09T13:59:21;19.60;99.50
8043;DHT22;4064;48.132;11.366;2022-09-09T14:01:48;19.40;99.80
8043;DHT22;4064;48.132;11.366;2022-09-09T14:04:18;19.40;99.90
8043;DHT22;4064;48.132;11.366;2022-09-09T14:06:46;19.40;99.90
8043;DHT22;4064;48.132;11.366;2022-09-09T14:09:14;19.30;99.90
8043;DHT22;4064;48.132;11.366;2022-09-09T14:11:40;19.20;99.90
8043;DHT22;4064;48.132;11.366;2022-09-09T14:14:06;19.20;99.90
8043;DHT22;4064;48.132;11.366;2022-09-09T14:16:35;19.20;99.90
8043;DHT22;4064;48.132;11.366;2022-09-09T14:19:01;19.20;99.90
8043;DHT22;4064;48.132;11.366;2022-09-09T14:21:27;19.20;99.90
8043;DHT22;4064;48.132;11.366;2022-09-09T14:23:53;19.20;99.00
8043;DHT22;4064;48.132;11.366;2022-09-09T14:26:22;19.10;97.70
8043;DHT22;4064;48.132;11.366;2022-09-09T14:28:49;19.10;97.40
8043;DHT22;4064;48.132;11.366;2022-09-09T14:31:15;19.00;97.00
8043;DHT22;4064;48.132;11.366;2022-09-09T14:33:43;19.00;97.30
8043;DHT22;4064;48.132;11.366;2022-09-09T14:36:09;18.90;97.10
8043;DHT22;4064;48.132;11.366;2022-09-09T14:38:37;18.80;97.10
8043;DHT22;4064;48.132;11.366;2022-09-09T14:41:10;18.80;97.40
8043;DHT22;4064;48.132;11.366;2022-09-09T14:43:39;18.80;97.60
8043;DHT22;4064;48.132;11.366;2022-09-09T14:46:11;18.80;97.90
8043;DHT22;4064;48.132;11.366;2022-09-09T14:48:37;18.80;97.80
8043;DHT22;4064;48.132;11.366;2022-09-09T14:51:14;18.80;97.90
8043;DHT22;4064;48.132;11.366;2022-09-09T14:53:41;18.70;97.80
8043;DHT22;4064;48.132;11.366;2022-09-09T14:56:13;18.70;97.50
8043;DHT22;4064;48.132;11.366;2022-09-09T14:58:39;18.70;97.80
8043;DHT22;4064;48.132;11.366;2022-09-09T15:01:10;18.70;98.50
8043;DHT22;4064;48.132;11.366;2022-09-09T15:03:36;18.80;99.20
8043;DHT22;4064;48.132;11.366;2022-09-09T15:06:13;18.90;99.80
8043;DHT22;4064;48.132;11.366;2022-09-09T15:08:42;19.00;99.70
8043;DHT22;4064;48.132;11.366;2022-09-09T15:11:09;19.10;99.90
8043;DHT22;4064;48.132;11.366;2022-09-09T15:13:43;19.20;99.90
8043;DHT22;4064;48.132;11.366;2022-09-09T15:16:16;19.30;99.90
8043;DHT22;4064;48.132;11.366;2022-09-09T15:18:43;19.50;99.90
8043;DHT22;4064;48.132;11.366;2022-09-09T15:21:16;19.60;99.90
8043;DHT22;4064;48.132;11.366;2022-09-09T15:23:42;19.70;99.20
8043;DHT22;4064;48.132;11.366;2022-09-09T15:26:09;19.70;99.40
8043;DHT22;4064;48.132;11.366;2022-09-09T15:28:36;19.80;99.70
8043;DHT22;4064;48.132;11.366;2022-09-09T15:31:06;19.80;99.00
8043;DHT22;4064;48.132;11.366;2022-09-09T15:33:33;19.80;98.90
8043;DHT22;4064;48.132;11.366;2022-09-09T15:35:59;19.80;98.50
8043;DHT22;4064;48.132;11.366;2022-09-09T15:38:25;19.70;98.40
8043;DHT22;4064;48.132;11.366;2022-09-09T15:40:54;19.70;97.90
8043;DHT22;4064;48.132;11.366;2022-09-09T15:43:21;19.50;98.00
8043;DHT22;4064;48.132;11.366;2022-09-09T15:45:53;19.30;97.90
8043;DHT22;4064;48.132;11.366;2022-09-09T15:48:30;19.20;98.10
8043;DHT22;4064;48.132;11.366;2022-09-09T15:51:03;19.00;97.50
8043;DHT22;4064;48.132;11.366;2022-09-09T15:53:30;18.80;97.90
8043;DHT22;4064;48.132;11.366;2022-09-09T15:55:58;18.70;98.20
8043;DHT22;4064;48.132;11.366;2022-09-09T15:58:24;18.50;98.00
8043;DHT22;4064;48.132;11.366;2022-09-09T16:00:50;18.50;98.50
8043;DHT22;4064;48.132;11.366;2022-09-09T16:03:16;18.40;98.90
8043;DHT22;4064;48.132;11.366;2022-09-09T16:05:42;18.40;99.10
8043;DHT22;4064;48.132;11.366;2022-09-09T16:08:08;18.50;99.20
8043;DHT22;4064;48.132;11.366;2022-09-09T16:10:34;18.50;99.10
8043;DHT22;4064;48.132;11.366;2022-09-09T16:13:00;18.60;99.20
8043;DHT22;4064;48.132;11.366;2022-09-09T16:15:26;18.60;99.10
8043;DHT22;4064;48.132;11.366;2022-09-09T16:17:53;18.60;99.00
8043;DHT22;4064;48.132;11.366;2022-09-09T16:20:19;18.60;99.10
8043;DHT22;4064;48.132;11.366;2022-09-09T16:22:45;18.60;99.10
8043;DHT22;4064;48.132;11.366;2022-09-09T16:25:11;18.50;99.20
8043;DHT22;4064;48.132;11.366;2022-09-09T16:27:37;18.40;99.20
8043;DHT22;4064;48.132;11.366;2022-09-09T16:30:03;18.30;99.40
8043;DHT22;4064;48.132;11.366;2022-09-09T16:32:29;18.30;99.20
8043;DHT22;4064;48.132;11.366;2022-09-09T16:34:55;18.20;99.50
8043;DHT22;4064;48.132;11.366;2022-09-09T16:37:22;18.10;99.30
8043;DHT22;4064;48.132;11.366;2022-09-09T16:39:48;18.00;99.20
8043;DHT22;4064;48.132;11.366;2022-09-09T16:42:15;18.00;99.10
8043;DHT22;4064;48.132;11.366;2022-09-09T16:44:42;17.90;99.20
8043;DHT22;4064;48.132;11.366;2022-09-09T16:47:08;17.80;99.20
8043;DHT22;4064;48.132;11.366;2022-09-09T16:49:33;17.80;99.40
8043;DHT22;4064;48.132;11.366;2022-09-09T16:51:59;17.80;99.60
8043;DHT22;4064;48.132;11.366;2022-09-09T16:54:25;17.70;99.70
8043;DHT22;4064;48.132;11.366;2022-09-09T16:56:52;17.70;99.80
8043;DHT22;4064;48.132;11.366;2022-09-09T16:59:20;17.60;99.90
8043;DHT22;4064;48.132;11.366;2022-09-09T17:01:47;17.50;99.90
8043;DHT22;4064;48.132;11.366;2022-09-09T17:04:15;17.50;99.90
8043;DHT22;4064;48.132;11.366;2022-09-09T17:06:47;17.50;99.90
8043;DHT22;4064;48.132;11.366;2022-09-09T17:09:14;17.40;99.90
8043;DHT22;4064;48.132;11.366;2022-09-09T17:11:40;17.30;99.90
8043;DHT22;4064;48.132;11.366;2022-09-09T17:14:08;17.30;99.90
8043;DHT22;4064;48.132;11.366;2022-09-09T17:16:36;17.30;99.90
8043;DHT22;4064;48.132;11.366;2022-09-09T17:19:04;17.20;99.90
8043;DHT22;4064;48.132;11.366;2022-09-09T17:21:32;17.20;99.90
8043;DHT22;4064;48.132;11.366;2022-09-09T17:23:58;17.20;99.90
8043;DHT22;4064;48.132;11.366;2022-09-09T17:26:27;17.10;99.90
8043;DHT22;4064;48.132;11.366;2022-09-09T17:28:53;17.10;99.90
8043;DHT22;4064;48.132;11.366;2022-09-09T17:31:21;17.00;99.90
8043;DHT22;4064;48.132;11.366;2022-09-09T17:33:48;17.00;99.90
8043;DHT22;4064;48.132;11.366;2022-09-09T17:36:24;16.90;99.90
8043;DHT22;4064;48.132;11.366;2022-09-09T17:38:51;16.80;99.90
8043;DHT22;4064;48.132;11.366;2022-09-09T17:41:19;16.80;99.90
8043;DHT22;4064;48.132;11.366;2022-09-09T17:43:46;16.70;99.90
8043;DHT22;4064;48.132;11.366;2022-09-09T17:48:41;16.60;99.90
8043;DHT22;4064;48.132;11.366;2022-09-09T17:51:09;16.50;99.90
8043;DHT22;4064;48.132;11.366;2022-09-09T17:53:41;16.50;99.90
8043;DHT22;4064;48.132;11.366;2022-09-09T17:56:09;16.40;99.90
8043;DHT22;4064;48.132;11.366;2022-09-09T17:58:36;16.40;99.90
8043;DHT22;4064;48.132;11.366;2022-09-09T18:01:08;16.30;99.90
8043;DHT22;4064;48.132;11.366;2022-09-09T18:03:35;16.30;99.90
8043;DHT22;4064;48.132;11.366;2022-09-09T18:06:07;16.20;99.90
8043;DHT22;4064;48.132;11.366;2022-09-09T18:08:34;16.10;99.90
8043;DHT22;4064;48.132;11.366;2022-09-09T18:11:01;16.10;99.90
8043;DHT22;4064;48.132;11.366;2022-09-09T18:13:27;16.00;99.90
8043;DHT22;4064;48.132;11.366;2022-09-09T18:15:54;16.00;99.90
8043;DHT22;4064;48.132;11.366;2022-09-09T18:18:20;16.00;99.90
8043;DHT22;4064;48.132;11.366;2022-09-09T18:20:56;15.90;99.90
8043;DHT22;4064;48.132;11.366;2022-09-09T18:23:22;15.90;99.90
8043;DHT22;4064;48.132;11.366;2022-09-09T18:25:48;15.90;99.90
8043;DHT22;4064;48.132;11.366;2022-09-09T18:28:14;15.80;99.90
8043;DHT22;4064;48.132;11.366;2022-09-09T18:30:39;15.80;99.90